Time;durP1;ratioP1;P1;durP2;ratioP2;P2;SDS_P1;SDS_P2;PMS_P1;PMS_P2;Temp;Humidity;BMP_temperature;BMP_pressure;BME280_temperature;BME280_humidity;BME280_pressure;Samples;Min_cycle;Max_cycle;Signal;HPM_P1;HPM_P2
2021/08/30 00:01:18;;;;;;;;;;;;;;;16.70;100.00;99284.59;5015559;28;19918;-79
2021/08/30 00:03:44;;;;;;;;;;;;;;;16.67;100.00;99280.41;5016223;28;19913;-79
2021/08/30 00:06:09;;;;;;;;;;;;;;;16.72;100.00;99280.97;5015373;28;20002;-80
2021/08/30 00:08:35;;;;;;;;;;;;;;;16.53;100.00;99288.06;5016012;28;20393;-79
2021/08/30 00:11:00;;;;;;;;;;;;;;;17.03;100.00;99287.16;5013562;28;19917;-79
2021/08/30 00:13:25;;;;;;;;;;;;;;;16.90;100.00;99286.13;5019269;28;19979;-79
2021/08/30 00:15:51;;;;;;;;;;;;;;;16.68;100.00;99287.25;5000389;28;20233;-79
2021/08/30 00:18:16;;;;;;;;;;;;;;;16.49;100.00;99282.19;5015740;28;19932;-79
2021/08/30 00:20:42;;;;;;;;;;;;;;;16.93;100.00;99291.19;5017664;28;19925;-79
2021/08/30 00:23:07;;;;;;;;;;;;;;;16.89;100.00;99285.31;5017508;28;20000;-79
2021/08/30 00:25:33;;;;;;;;;;;;;;;16.39;100.00;99285.34;4999256;28;19910;-79
2021/08/30 00:27:58;;;;;;;;;;;;;;;16.67;100.00;99289.94;5015459;28;19924;-79
2021/08/30 00:30:23;;;;;;;;;;;;;;;16.79;100.00;99293.66;4997758;28;19914;-79
2021/08/30 00:32:48;;;;;;;;;;;;;;;16.21;100.00;99293.13;4996232;28;19967;-79
2021/08/30 00:35:14;;;;;;;;;;;;;;;16.45;100.00;99291.06;5014952;28;19913;-79
2021/08/30 00:37:39;;;;;;;;;;;;;;;16.21;100.00;99287.94;5011595;28;19926;-79
2021/08/30 00:40:05;;;;;;;;;;;;;;;16.63;100.00;99297.06;5000079;28;19966;-79
2021/08/30 00:42:31;;;;;;;;;;;;;;;16.68;100.00;99294.22;5014265;28;19917;-79
2021/08/30 00:44:56;;;;;;;;;;;;;;;16.33;100.00;99283.03;5012914;28;19932;-79
2021/08/30 00:47:22;;;;;;;;;;;;;;;16.59;100.00;99298.16;4997456;28;19914;-79
2021/08/30 00:49:48;;;;;;;;;;;;;;;16.66;100.00;99294.28;5014594;28;19960;-79
2021/08/30 00:52:13;;;;;;;;;;;;;;;16.52;100.00;99291.59;5001177;28;19927;-79
2021/08/30 00:54:39;;;;;;;;;;;;;;;16.46;100.00;99291.88;5014787;28;19917;-79
2021/08/30 00:57:04;;;;;;;;;;;;;;;16.40;100.00;99285.25;4997906;28;20392;-79
2021/08/30 00:59:29;;;;;;;;;;;;;;;16.32;100.00;99290.00;5017850;28;19939;-80
2021/08/30 01:01:56;;;;;;;;;;;;;;;16.43;100.00;99289.47;5015961;28;20439;-79
2021/08/30 01:04:21;;;;;;;;;;;;;;;16.33;100.00;99293.44;5013058;28;19925;-79
2021/08/30 01:07:00;;;;;;;;;;;;;;;16.30;100.00;99292.66;4998539;28;20008;-79
2021/08/30 01:09:27;;;;;;;;;;;;;;;16.68;100.00;99297.66;5012886;28;20562;-79
2021/08/30 01:12:16;;;;;;;;;;;;;;;16.46;100.00;99297.09;5014580;28;19926;-79
2021/08/30 01:14:44;;;;;;;;;;;;;;;16.43;100.00;99297.25;4994803;28;19922;-79
2021/08/30 01:17:11;;;;;;;;;;;;;;;16.37;100.00;99307.97;5011583;28;20481;-79
2021/08/30 01:19:41;;;;;;;;;;;;;;;16.70;100.00;99310.59;5014791;28;19913;-79
2021/08/30 01:22:07;;;;;;;;;;;;;;;16.48;100.00;99305.66;5013738;28;19918;-79
2021/08/30 01:24:32;;;;;;;;;;;;;;;16.66;100.00;99309.91;5012663;28;19928;-79
2021/08/30 01:26:58;;;;;;;;;;;;;;;16.53;100.00;99303.66;5015119;28;19988;-79
2021/08/30 01:29:25;;;;;;;;;;;;;;;16.38;100.00;99310.50;5016412;28;20040;-79
2021/08/30 01:31:51;;;;;;;;;;;;;;;16.60;100.00;99310.22;5010499;28;19976;-79
2021/08/30 01:34:16;;;;;;;;;;;;;;;16.68;100.00;99318.47;4997262;28;19918;-79
2021/08/30 01:36:42;;;;;;;;;;;;;;;16.97;100.00;99313.53;5013572;28;19914;-79
2021/08/30 01:39:07;;;;;;;;;;;;;;;17.02;100.00;99306.31;5011644;28;20503;-79
2021/08/30 01:41:33;;;;;;;;;;;;;;;16.48;100.00;99316.06;5013507;28;19930;-79
2021/08/30 01:43:58;;;;;;;;;;;;;;;17.20;100.00;99314.06;5014403;28;20004;-79
2021/08/30 01:46:23;;;;;;;;;;;;;;;16.86;100.00;99300.25;5013221;28;19917;-79
2021/08/30 01:48:50;;;;;;;;;;;;;;;16.34;100.00;99308.97;5018550;28;19978;-78
2021/08/30 01:51:17;;;;;;;;;;;;;;;16.27;100.00;99318.00;5009780;28;19917;-79
2021/08/30 01:53:43;;;;;;;;;;;;;;;16.37;100.00;99318.34;5012244;28;19918;-79
2021/08/30 01:56:09;;;;;;;;;;;;;;;16.82;100.00;99309.97;5014033;28;19964;-79
2021/08/30 02:00:59;;;;;;;;;;;;;;;16.35;100.00;99309.78;4997298;28;19921;-79
2021/08/30 02:03:26;;;;;;;;;;;;;;;16.51;100.00;99308.09;5012627;28;19928;-79
2021/08/30 02:05:53;;;;;;;;;;;;;;;16.61;100.00;99316.28;4999280;28;19928;-80
2021/08/30 02:08:22;;;;;;;;;;;;;;;16.32;100.00;99318.59;5011800;28;20478;-79
2021/08/30 02:10:48;;;;;;;;;;;;;;;16.45;100.00;99322.25;5000024;28;19917;-79
2021/08/30 02:13:13;;;;;;;;;;;;;;;16.60;100.00;99320.63;5013441;28;19925;-79
2021/08/30 02:15:39;;;;;;;;;;;;;;;16.66;100.00;99317.69;5011584;28;19930;-79
2021/08/30 02:18:32;;;;;;;;;;;;;;;16.53;100.00;99314.06;5018220;28;19921;-79
2021/08/30 02:21:02;;;;;;;;;;;;;;;16.39;100.00;99312.16;5012255;28;20366;-79
2021/08/30 02:23:29;;;;;;;;;;;;;;;16.22;100.00;99310.44;5015778;28;19913;-79
2021/08/30 02:25:55;;;;;;;;;;;;;;;16.60;100.00;99310.22;5010727;28;19917;-79
2021/08/30 02:28:21;;;;;;;;;;;;;;;16.54;100.00;99310.56;5013546;28;19930;-79
2021/08/30 02:30:46;;;;;;;;;;;;;;;16.56;100.00;99302.66;5016221;28;20426;-79
2021/08/30 02:33:11;;;;;;;;;;;;;;;16.61;100.00;99306.72;5012924;28;19936;-78
2021/08/30 02:35:37;;;;;;;;;;;;;;;16.57;100.00;99299.16;4995603;28;19918;-78
2021/08/30 02:38:02;;;;;;;;;;;;;;;16.42;100.00;99306.81;5011164;28;19964;-79
2021/08/30 02:40:28;;;;;;;;;;;;;;;16.42;100.00;99305.97;5017020;28;19921;-79
2021/08/30 02:42:57;;;;;;;;;;;;;;;16.22;100.00;99305.22;5017513;28;20414;-79
2021/08/30 02:45:23;;;;;;;;;;;;;;;16.38;100.00;99309.66;5014382;28;19922;-79
2021/08/30 02:47:48;;;;;;;;;;;;;;;16.36;100.00;99308.91;5018241;28;19937;-79
2021/08/30 02:50:14;;;;;;;;;;;;;;;16.41;100.00;99309.50;5020367;28;20879;-79
2021/08/30 02:52:39;;;;;;;;;;;;;;;16.56;100.00;99311.31;5019286;28;20025;-79
2021/08/30 02:55:05;;;;;;;;;;;;;;;16.25;100.00;99309.44;5003434;28;20293;-79
2021/08/30 02:57:31;;;;;;;;;;;;;;;16.53;100.00;99306.25;5019613;28;19921;-79
2021/08/30 02:59:56;;;;;;;;;;;;;;;16.48;100.00;99303.06;5018642;28;20297;-79
2021/08/30 03:02:24;;;;;;;;;;;;;;;16.55;100.00;99301.81;5017525;28;19917;-79
2021/08/30 03:04:50;;;;;;;;;;;;;;;16.29;100.00;99296.19;5019090;28;19924;-79
2021/08/30 03:07:16;;;;;;;;;;;;;;;16.61;100.00;99300.69;5018603;28;20016;-79
2021/08/30 03:09:41;;;;;;;;;;;;;;;16.62;100.00;99292.78;5016572;28;20384;-79
2021/08/30 03:12:07;;;;;;;;;;;;;;;16.37;100.00;99297.56;5000748;28;20412;-80
2021/08/30 03:14:32;;;;;;;;;;;;;;;16.14;100.00;99301.31;5016494;28;19918;-79
2021/08/30 03:17:02;;;;;;;;;;;;;;;16.34;100.00;99301.16;5017951;28;19930;-79
2021/08/30 03:19:27;;;;;;;;;;;;;;;16.34;100.00;99295.97;5010156;28;20302;-79
2021/08/30 03:21:53;;;;;;;;;;;;;;;16.33;100.00;99296.03;5015259;28;19936;-79
2021/08/30 03:24:21;;;;;;;;;;;;;;;16.10;100.00;99303.22;4999014;28;20526;-79
2021/08/30 03:26:49;;;;;;;;;;;;;;;16.18;100.00;99298.50;4999798;28;19930;-79
2021/08/30 03:29:15;;;;;;;;;;;;;;;16.09;100.00;99304.16;5018498;28;19922;-79
2021/08/30 03:31:40;;;;;;;;;;;;;;;16.24;100.00;99308.59;5016479;28;19922;-79
2021/08/30 03:34:06;;;;;;;;;;;;;;;16.06;100.00;99304.31;5015544;28;19922;-78
2021/08/30 03:36:31;;;;;;;;;;;;;;;16.01;100.00;99298.50;5018155;28;19928;-79
2021/08/30 03:38:57;;;;;;;;;;;;;;;15.92;100.00;99306.72;5018339;28;19917;-78
2021/08/30 03:41:22;;;;;;;;;;;;;;;16.18;100.00;99308.06;5015175;28;19921;-79
2021/08/30 03:43:47;;;;;;;;;;;;;;;15.94;100.00;99304.91;5013088;28;20361;-78
2021/08/30 03:46:13;;;;;;;;;;;;;;;16.24;100.00;99312.97;5016130;28;19922;-78
2021/08/30 03:48:38;;;;;;;;;;;;;;;16.25;100.00;99310.25;5012092;28;19917;-78
2021/08/30 03:51:04;;;;;;;;;;;;;;;16.42;100.00;99316.34;5015632;28;20701;-78
2021/08/30 03:53:30;;;;;;;;;;;;;;;16.26;100.00;99317.16;5015256;28;19920;-78
2021/08/30 03:55:55;;;;;;;;;;;;;;;16.24;100.00;99312.97;5017999;28;19925;-78
2021/08/30 03:58:20;;;;;;;;;;;;;;;16.68;100.00;99308.06;5017093;28;20005;-79
2021/08/30 04:00:46;;;;;;;;;;;;;;;16.52;100.00;99304.59;5013581;28;19922;-79
2021/08/30 04:03:12;;;;;;;;;;;;;;;16.05;100.00;99308.66;5016697;28;19922;-80
2021/08/30 04:05:39;;;;;;;;;;;;;;;15.96;100.00;99308.28;5011167;28;19918;-80
2021/08/30 04:08:06;;;;;;;;;;;;;;;16.10;100.00;99305.81;5009847;28;19917;-80
2021/08/30 04:10:32;;;;;;;;;;;;;;;16.29;100.00;99308.34;5011984;28;19991;-80
2021/08/30 04:12:57;;;;;;;;;;;;;;;16.66;100.00;99307.31;5021986;28;20377;-80
2021/08/30 04:15:23;;;;;;;;;;;;;;;16.38;100.00;99299.25;5013464;28;19914;-80
2021/08/30 04:17:48;;;;;;;;;;;;;;;16.41;100.00;99304.28;4999058;28;19941;-79
2021/08/30 04:20:13;;;;;;;;;;;;;;;15.98;100.00;99298.66;5026133;28;19914;-79
2021/08/30 04:22:39;;;;;;;;;;;;;;;16.21;100.00;99307.91;5013994;28;20354;-78
2021/08/30 04:25:05;;;;;;;;;;;;;;;16.52;100.00;99307.19;5013838;28;19942;-79
2021/08/30 04:27:30;;;;;;;;;;;;;;;16.43;100.00;99305.06;5010912;28;19918;-79
2021/08/30 04:29:55;;;;;;;;;;;;;;;16.42;100.00;99311.16;5011319;28;19924;-78
2021/08/30 04:32:21;;;;;;;;;;;;;;;16.19;100.00;99307.97;5005548;28;20446;-78
2021/08/30 04:34:46;;;;;;;;;;;;;;;16.01;100.00;99308.88;5011627;28;20281;-79
2021/08/30 04:37:11;;;;;;;;;;;;;;;16.04;100.00;99316.53;5015217;28;19925;-79
2021/08/30 04:39:37;;;;;;;;;;;;;;;16.10;100.00;99316.22;5019145;28;20420;-78
2021/08/30 04:42:04;;;;;;;;;;;;;;;16.17;100.00;99317.63;5002722;28;20369;-78
2021/08/30 04:44:29;;;;;;;;;;;;;;;15.78;100.00;99320.41;5002386;28;20481;-78
2021/08/30 04:46:55;;;;;;;;;;;;;;;15.93;100.00;99324.03;5022835;28;19918;-78
2021/08/30 04:49:20;;;;;;;;;;;;;;;16.00;100.00;99321.03;5029174;28;19914;-78
2021/08/30 04:51:45;;;;;;;;;;;;;;;15.93;100.00;99334.41;5010985;28;19918;-79
2021/08/30 04:54:11;;;;;;;;;;;;;;;15.79;100.00;99338.50;5011892;28;19980;-77
2021/08/30 04:56:36;;;;;;;;;;;;;;;16.22;100.00;99328.63;5009282;28;20008;-79
2021/08/30 04:59:02;;;;;;;;;;;;;;;16.31;100.00;99328.16;5009122;28;20053;-79
2021/08/30 05:01:27;;;;;;;;;;;;;;;15.81;100.00;99326.28;4993611;28;20599;-78
2021/08/30 05:03:53;;;;;;;;;;;;;;;16.16;100.00;99328.91;5011889;28;19921;-79
2021/08/30 05:06:18;;;;;;;;;;;;;;;16.15;100.00;99332.44;5008793;28;19922;-78
2021/08/30 05:08:44;;;;;;;;;;;;;;;16.06;100.00;99330.31;5013424;28;19913;-78
2021/08/30 05:11:09;;;;;;;;;;;;;;;16.22;100.00;99331.22;5025220;28;19913;-78
2021/08/30 05:13:34;;;;;;;;;;;;;;;15.97;100.00;99335.94;5010709;28;19925;-78
2021/08/30 05:16:00;;;;;;;;;;;;;;;15.94;100.00;99333.47;5017706;28;19999;-77
2021/08/30 05:18:25;;;;;;;;;;;;;;;16.43;100.00;99336.25;4998868;28;19973;-78
2021/08/30 05:20:52;;;;;;;;;;;;;;;16.03;100.00;99335.63;5014054;28;19913;-78
2021/08/30 05:23:17;;;;;;;;;;;;;;;16.41;100.00;99332.88;5015351;28;19972;-78
2021/08/30 05:25:43;;;;;;;;;;;;;;;16.04;100.00;99332.13;5016974;28;19918;-77
2021/08/30 05:28:09;;;;;;;;;;;;;;;16.47;100.00;99340.38;5010765;28;19957;-78
2021/08/30 05:30:35;;;;;;;;;;;;;;;16.63;100.00;99343.88;4984501;28;19921;-78
2021/08/30 05:33:00;;;;;;;;;;;;;;;16.33;100.00;99337.63;5003995;28;19914;-78
2021/08/30 05:35:25;;;;;;;;;;;;;;;16.22;100.00;99346.81;5014958;28;19917;-78
2021/08/30 05:37:51;;;;;;;;;;;;;;;16.09;100.00;99343.13;5001030;28;19918;-77
2021/08/30 05:40:16;;;;;;;;;;;;;;;16.06;100.00;99351.09;5013604;28;19914;-78
2021/08/30 05:42:41;;;;;;;;;;;;;;;16.08;100.00;99346.66;4993728;28;19945;-77
2021/08/30 05:45:07;;;;;;;;;;;;;;;16.29;100.00;99350.78;5020231;28;19972;-78
2021/08/30 05:47:32;;;;;;;;;;;;;;;16.64;100.00;99350.75;5021987;28;19924;-78
2021/08/30 05:49:58;;;;;;;;;;;;;;;16.18;100.00;99349.63;5015739;28;19921;-78
2021/08/30 05:52:25;;;;;;;;;;;;;;;16.34;100.00;99360.09;5015720;28;19921;-78
2021/08/30 05:54:50;;;;;;;;;;;;;;;16.91;100.00;99345.91;5020529;28;20062;-77
2021/08/30 05:57:15;;;;;;;;;;;;;;;16.73;100.00;99337.25;5001060;28;19922;-78
2021/08/30 05:59:41;;;;;;;;;;;;;;;16.12;100.00;99345.56;5015021;28;20017;-78
2021/08/30 06:02:06;;;;;;;;;;;;;;;16.62;100.00;99349.97;5017806;28;20281;-78
2021/08/30 06:04:31;;;;;;;;;;;;;;;16.31;100.00;99346.34;5018727;28;20008;-78
2021/08/30 06:06:57;;;;;;;;;;;;;;;16.10;100.00;99357.78;5019065;28;20373;-77
2021/08/30 06:09:22;;;;;;;;;;;;;;;16.44;100.00;99349.16;5008749;28;20440;-78
2021/08/30 06:11:50;;;;;;;;;;;;;;;15.91;100.00;99362.22;5009456;28;19922;-77
2021/08/30 06:14:15;;;;;;;;;;;;;;;15.77;100.00;99350.72;5013415;28;19914;-78
2021/08/30 06:16:41;;;;;;;;;;;;;;;16.09;100.00;99358.72;5027743;28;19924;-78
2021/08/30 06:19:06;;;;;;;;;;;;;;;16.24;100.00;99355.38;4994418;28;20381;-78
2021/08/30 06:21:31;;;;;;;;;;;;;;;16.17;100.00;99353.13;5009397;28;20013;-79
2021/08/30 06:23:57;;;;;;;;;;;;;;;15.97;100.00;99360.16;4995464;28;19914;-78
2021/08/30 06:26:22;;;;;;;;;;;;;;;16.01;100.00;99361.69;5025243;28;19917;-78
2021/08/30 06:28:47;;;;;;;;;;;;;;;15.66;100.00;99363.34;5017070;28;19964;-79
2021/08/30 06:31:13;;;;;;;;;;;;;;;16.02;100.00;99358.16;5020145;28;19952;-79
2021/08/30 06:33:38;;;;;;;;;;;;;;;16.19;100.00;99359.94;5021861;28;19922;-78
2021/08/30 06:36:04;;;;;;;;;;;;;;;15.83;100.00;99360.81;5021736;28;20427;-77
2021/08/30 06:38:29;;;;;;;;;;;;;;;16.02;100.00;99367.72;5017498;28;19921;-78
2021/08/30 06:40:54;;;;;;;;;;;;;;;15.98;100.00;99363.59;5016835;28;19941;-78
2021/08/30 06:43:20;;;;;;;;;;;;;;;15.89;100.00;99365.72;5012959;28;19937;-78
2021/08/30 06:45:45;;;;;;;;;;;;;;;16.12;100.00;99358.56;4994946;28;19917;-78
2021/08/30 06:48:10;;;;;;;;;;;;;;;16.13;100.00;99362.84;5008995;28;20004;-79
2021/08/30 06:50:36;;;;;;;;;;;;;;;16.20;100.00;99359.03;4999868;28;19918;-78
2021/08/30 06:53:01;;;;;;;;;;;;;;;16.24;100.00;99355.38;5014413;28;20001;-78
2021/08/30 06:55:26;;;;;;;;;;;;;;;16.04;100.00;99360.72;5013375;28;19996;-77
2021/08/30 06:57:52;;;;;;;;;;;;;;;16.45;100.00;99353.44;5018553;28;20305;-78
2021/08/30 07:00:17;;;;;;;;;;;;;;;16.33;100.00;99359.28;5017362;28;19972;-77
2021/08/30 07:02:43;;;;;;;;;;;;;;;16.53;100.00;99355.66;5007976;28;19922;-76
2021/08/30 07:05:08;;;;;;;;;;;;;;;16.55;100.00;99351.22;5011328;28;20013;-78
2021/08/30 07:07:34;;;;;;;;;;;;;;;16.12;100.00;99355.97;4996030;28;20523;-77
2021/08/30 07:09:59;;;;;;;;;;;;;;;16.17;100.00;99359.19;5011740;28;19921;-77
2021/08/30 07:12:25;;;;;;;;;;;;;;;16.27;100.00;99349.19;5011087;28;19964;-77
2021/08/30 07:14:50;;;;;;;;;;;;;;;16.17;100.00;99364.38;5003470;28;20316;-76
2021/08/30 07:17:15;;;;;;;;;;;;;;;15.84;100.00;99367.69;4998378;28;19930;-77
2021/08/30 07:19:41;;;;;;;;;;;;;;;15.91;100.00;99377.78;5010436;28;20024;-77
2021/08/30 07:22:06;;;;;;;;;;;;;;;16.19;100.00;99370.31;4995618;28;20420;-76
2021/08/30 07:24:32;;;;;;;;;;;;;;;16.20;100.00;99368.59;5024726;28;19920;-77
2021/08/30 07:26:57;;;;;;;;;;;;;;;15.93;100.00;99370.78;5019757;28;19914;-77
2021/08/30 07:29:22;;;;;;;;;;;;;;;16.44;100.00;99377.75;5019294;28;19918;-78
2021/08/30 07:31:48;;;;;;;;;;;;;;;16.36;100.00;99373.88;4997328;28;20701;-78
2021/08/30 07:34:13;;;;;;;;;;;;;;;16.42;100.00;99368.34;5018007;28;19957;-77
2021/08/30 07:36:39;;;;;;;;;;;;;;;16.50;100.00;99374.84;5012038;28;19954;-77
2021/08/30 07:39:04;;;;;;;;;;;;;;;16.15;100.00;99371.41;5015785;28;19917;-76
2021/08/30 07:41:30;;;;;;;;;;;;;;;16.33;100.00;99371.41;5021717;28;19914;-77
2021/08/30 07:43:57;;;;;;;;;;;;;;;16.42;100.00;99369.22;5026432;28;19914;-78
2021/08/30 07:46:22;;;;;;;;;;;;;;;16.49;100.00;99374.94;5021280;28;19914;-77
2021/08/30 07:48:48;;;;;;;;;;;;;;;16.53;100.00;99371.25;5023660;28;20293;-77
2021/08/30 07:51:13;;;;;;;;;;;;;;;16.40;100.00;99370.19;5018551;28;19924;-78
2021/08/30 07:53:40;;;;;;;;;;;;;;;16.55;100.00;99379.81;5020968;28;20408;-77
2021/08/30 07:56:05;;;;;;;;;;;;;;;16.86;100.00;99379.13;5006154;28;20404;-78
2021/08/30 07:58:31;;;;;;;;;;;;;;;16.82;100.00;99376.78;5014967;28;19929;-78
2021/08/30 08:00:56;;;;;;;;;;;;;;;16.93;100.00;99367.47;5016254;28;19920;-78
2021/08/30 08:03:21;;;;;;;;;;;;;;;16.84;100.00;99374.94;5014689;28;19914;-77
2021/08/30 08:05:47;;;;;;;;;;;;;;;16.58;100.00;99378.81;5005385;28;19917;-78
2021/08/30 08:08:12;;;;;;;;;;;;;;;16.83;100.00;99378.44;5024729;28;20387;-77
2021/08/30 08:10:38;;;;;;;;;;;;;;;16.58;100.00;99392.69;5015797;28;19920;-77
2021/08/30 08:13:03;;;;;;;;;;;;;;;16.43;100.00;99383.03;5016258;28;19928;-77
2021/08/30 08:15:28;;;;;;;;;;;;;;;17.38;100.00;99385.09;5002751;28;19914;-77
2021/08/30 08:17:54;;;;;;;;;;;;;;;17.69;100.00;99376.47;5010169;28;19918;-77
2021/08/30 08:20:19;;;;;;;;;;;;;;;17.05;100.00;99372.97;5022892;28;19921;-77
2021/08/30 08:22:44;;;;;;;;;;;;;;;17.25;100.00;99385.75;5018015;28;19914;-77
2021/08/30 08:25:10;;;;;;;;;;;;;;;16.71;100.00;99374.69;5021481;28;19917;-76
2021/08/30 08:27:36;;;;;;;;;;;;;;;16.97;100.00;99389.00;5022357;28;19941;-77
2021/08/30 08:30:03;;;;;;;;;;;;;;;17.48;100.00;99381.91;5019761;28;20324;-77
2021/08/30 08:32:28;;;;;;;;;;;;;;;16.76;100.00;99387.44;5011689;28;20023;-77
2021/08/30 08:34:53;;;;;;;;;;;;;;;17.12;100.00;99385.56;5015341;28;20025;-77
2021/08/30 08:37:19;;;;;;;;;;;;;;;17.30;100.00;99380.31;5017746;28;19921;-76
2021/08/30 08:39:44;;;;;;;;;;;;;;;17.72;100.00;99374.53;4998067;28;19917;-78
2021/08/30 08:42:10;;;;;;;;;;;;;;;17.47;100.00;99375.03;5019649;28;19913;-77
2021/08/30 08:44:36;;;;;;;;;;;;;;;17.66;100.00;99374.88;5015965;28;19948;-77
2021/08/30 08:47:02;;;;;;;;;;;;;;;17.65;100.00;99372.34;5002672;28;19913;-77
2021/08/30 08:49:27;;;;;;;;;;;;;;;17.75;100.00;99376.13;5012131;28;20400;-77
2021/08/30 08:51:52;;;;;;;;;;;;;;;18.55;100.00;99369.81;5015529;28;19917;-77
2021/08/30 08:54:18;;;;;;;;;;;;;;;18.61;100.00;99368.63;5014960;28;19936;-76
2021/08/30 08:56:43;;;;;;;;;;;;;;;18.46;100.00;99364.31;5014601;28;19960;-76
2021/08/30 08:59:08;;;;;;;;;;;;;;;18.39;100.00;99358.63;5013359;28;19925;-76
2021/08/30 09:01:37;;;;;;;;;;;;;;;18.14;100.00;99364.41;5013714;28;19925;-77
2021/08/30 09:04:03;;;;;;;;;;;;;;;17.98;100.00;99359.22;5012852;28;19960;-76
2021/08/30 09:06:42;;;;;;;;;;;;;;;18.62;100.00;99367.69;5013062;28;20381;-76
2021/08/30 09:09:08;;;;;;;;;;;;;;;18.25;100.00;99356.81;5008868;28;19913;-77
2021/08/30 09:11:38;;;;;;;;;;;;;;;18.69;100.00;99365.56;5014380;28;19925;-76
2021/08/30 09:14:11;;;;;;;;;;;;;;;18.84;100.00;99353.38;5014059;28;20333;-77
2021/08/30 09:16:36;;;;;;;;;;;;;;;18.99;100.00;99353.28;5012459;28;19925;-76
2021/08/30 09:19:03;;;;;;;;;;;;;;;18.33;100.00;99354.59;5014137;28;19922;-76
2021/08/30 09:21:28;;;;;;;;;;;;;;;18.39;100.00;99362.06;5011836;28;19918;-76
2021/08/30 09:23:53;;;;;;;;;;;;;;;18.51;100.00;99363.09;5015838;28;19924;-76
2021/08/30 09:26:20;;;;;;;;;;;;;;;19.10;100.00;99344.81;5012667;28;20024;-76
2021/08/30 09:28:53;;;;;;;;;;;;;;;18.72;100.00;99353.16;5013680;28;20192;-77
2021/08/30 09:31:19;;;;;;;;;;;;;;;18.02;100.00;99365.09;5012985;28;19898;-77
2021/08/30 09:33:49;;;;;;;;;;;;;;;18.28;100.00;99361.84;5014018;28;19996;-76
2021/08/30 09:36:14;;;;;;;;;;;;;;;19.51;100.00;99349.22;5015082;28;20008;-76
2021/08/30 09:38:40;;;;;;;;;;;;;;;19.66;100.00;99344.81;5011549;28;20104;-77
2021/08/30 09:41:08;;;;;;;;;;;;;;;19.83;100.00;99341.97;4996822;28;20615;-77
2021/08/30 09:43:34;;;;;;;;;;;;;;;20.30;100.00;99331.94;5015618;28;20398;-77
2021/08/30 09:46:01;;;;;;;;;;;;;;;20.95;100.00;99327.56;5013707;28;19921;-77
2021/08/30 09:48:27;;;;;;;;;;;;;;;20.59;100.00;99318.69;5011311;28;19961;-77
2021/08/30 09:50:57;;;;;;;;;;;;;;;18.87;100.00;99322.72;5012738;28;20008;-77
2021/08/30 09:53:22;;;;;;;;;;;;;;;18.15;100.00;99329.59;5014861;28;19979;-77
2021/08/30 09:55:48;;;;;;;;;;;;;;;18.57;100.00;99330.63;4997234;28;19950;-77
2021/08/30 09:58:14;;;;;;;;;;;;;;;19.10;100.00;99328.31;5014858;28;19917;-76
2021/08/30 10:00:39;;;;;;;;;;;;;;;18.80;100.00;99327.47;5013952;28;19975;-76
2021/08/30 10:03:05;;;;;;;;;;;;;;;18.77;100.00;99326.81;5012268;28;20062;-77
2021/08/30 10:05:30;;;;;;;;;;;;;;;19.18;100.00;99329.53;5010590;28;20517;-77
2021/08/30 10:07:57;;;;;;;;;;;;;;;19.10;100.00;99328.31;5011616;28;19961;-78
2021/08/30 10:10:23;;;;;;;;;;;;;;;19.87;100.00;99324.31;5012131;28;19920;-78
2021/08/30 10:12:49;;;;;;;;;;;;;;;20.17;100.00;99321.44;5009813;28;19926;-77
2021/08/30 10:15:18;;;;;;;;;;;;;;;20.31;100.00;99307.44;5008914;28;19925;-77
2021/08/30 10:17:44;;;;;;;;;;;;;;;20.52;100.00;99309.53;5010983;28;19951;-77
2021/08/30 10:20:14;;;;;;;;;;;;;;;20.91;100.00;99302.53;5013076;28;20018;-76
2021/08/30 10:22:39;;;;;;;;;;;;;;;20.31;100.00;99307.44;5012197;28;19913;-77
2021/08/30 10:25:14;;;;;;;;;;;;;;;19.33;100.00;99313.81;5013720;28;19924;-77
2021/08/30 10:27:39;;;;;;;;;;;;;;;20.10;100.00;99316.75;5015072;28;19997;-77
2021/08/30 10:30:10;;;;;;;;;;;;;;;18.57;100.00;99314.97;4997736;28;20012;-77
2021/08/30 10:32:36;;;;;;;;;;;;;;;19.33;100.00;99316.44;5011760;28;19928;-77
2021/08/30 10:35:10;;;;;;;;;;;;;;;19.22;100.00;99315.31;4989041;28;19917;-77
2021/08/30 10:37:35;;;;;;;;;;;;;;;20.03;100.00;99317.13;5001214;28;20508;-78
2021/08/30 10:40:01;;;;;;;;;;;;;;;19.99;100.00;99318.25;5012900;28;19924;-77
2021/08/30 10:42:26;;;;;;;;;;;;;;;20.56;100.00;99311.00;5010042;28;19964;-76
2021/08/30 10:44:55;;;;;;;;;;;;;;;19.79;100.00;99316.13;4995835;28;20000;-78
2021/08/30 10:47:24;;;;;;;;;;;;;;;20.91;100.00;99318.25;5011331;28;20849;-77
2021/08/30 10:49:51;;;;;;;;;;;;;;;20.73;100.00;99302.84;5014128;28;19957;-77
2021/08/30 10:52:17;;;;;;;;;;;;;;;21.00;100.00;99309.75;5009918;28;19997;-77
2021/08/30 10:54:49;;;;;;;;;;;;;;;19.54;100.00;99309.00;5012387;28;20028;-76
2021/08/30 10:57:15;;;;;;;;;;;;;;;20.88;100.00;99309.66;4997283;28;19975;-78
2021/08/30 10:59:43;;;;;;;;;;;;;;;20.57;100.00;99313.56;5000375;28;19940;-77
2021/08/30 11:02:08;;;;;;;;;;;;;;;21.48;100.00;99305.47;5014469;28;19944;-77
2021/08/30 11:04:34;;;;;;;;;;;;;;;19.98;100.00;99300.91;5019392;28;19917;-77
2021/08/30 11:07:00;;;;;;;;;;;;;;;21.01;100.00;99301.78;5021046;28;19914;-77
2021/08/30 11:09:26;;;;;;;;;;;;;;;21.39;100.00;99311.31;5017633;28;20009;-77
2021/08/30 11:11:51;;;;;;;;;;;;;;;21.68;100.00;99311.03;5018966;28;20348;-77
2021/08/30 11:14:17;;;;;;;;;;;;;;;20.58;100.00;99310.00;5002973;28;19918;-77
2021/08/30 11:16:42;;;;;;;;;;;;;;;20.71;100.00;99303.91;5019886;28;20060;-77
2021/08/30 11:19:12;;;;;;;;;;;;;;;20.09;100.00;99296.75;5013155;28;20400;-78
2021/08/30 11:21:39;;;;;;;;;;;;;;;19.90;100.00;99299.75;5015384;28;19917;-77
2021/08/30 11:24:05;;;;;;;;;;;;;;;20.85;100.00;99301.19;4997485;28;19924;-77
2021/08/30 11:26:31;;;;;;;;;;;;;;;22.29;100.00;99296.00;5014119;28;19913;-77
2021/08/30 11:29:00;;;;;;;;;;;;;;;20.73;100.00;99297.63;5014232;28;19914;-78
2021/08/30 11:31:27;;;;;;;;;;;;;;;22.12;100.00;99293.78;4998073;28;19902;-77
2021/08/30 11:33:52;;;;;;;;;;;;;;;21.42;100.00;99294.59;5013865;28;20321;-78
2021/08/30 11:36:18;;;;;;;;;;;;;;;20.32;100.00;99298.66;5015539;28;19926;-77
2021/08/30 11:38:50;;;;;;;;;;;;;;;19.55;100.00;99297.63;5014032;28;19945;-77
2021/08/30 11:41:16;;;;;;;;;;;;;;;21.08;100.00;99292.56;4999787;28;19964;-77
2021/08/30 11:43:41;;;;;;;;;;;;;;;20.74;100.00;99291.47;5012010;28;19949;-77
2021/08/30 11:46:07;;;;;;;;;;;;;;;21.37;100.00;99292.25;4998431;28;19922;-77
2021/08/30 11:48:32;;;;;;;;;;;;;;;22.55;100.00;99282.66;5017406;28;19935;-77
2021/08/30 11:51:02;;;;;;;;;;;;;;;20.78;100.00;99285.06;4991323;28;19928;-77
2021/08/30 11:53:27;;;;;;;;;;;;;;;21.29;100.00;99292.78;5013399;28;19914;-77
2021/08/30 11:55:53;;;;;;;;;;;;;;;22.67;100.00;99289.63;5013207;28;19960;-77
2021/08/30 11:58:18;;;;;;;;;;;;;;;22.92;100.00;99282.41;5014791;28;20407;-78
2021/08/30 12:00:43;;;;;;;;;;;;;;;22.29;100.00;99293.38;5013706;28;19964;-77
2021/08/30 12:03:12;;;;;;;;;;;;;;;22.23;100.00;99295.63;5014970;28;19996;-77
2021/08/30 12:05:41;;;;;;;;;;;;;;;22.14;100.00;99282.22;5001884;28;19917;-78
2021/08/30 12:08:07;;;;;;;;;;;;;;;23.55;100.00;99287.94;5013933;28;20009;-77
2021/08/30 12:10:32;;;;;;;;;;;;;;;23.27;100.00;99278.84;5014001;28;19980;-77
2021/08/30 12:15:32;;;;;;;;;;;;;;;23.26;100.00;99282.41;5014870;28;19955;-79
2021/08/30 12:17:59;;;;;;;;;;;;;;;24.56;100.00;99291.88;5014219;28;19975;-77
2021/08/30 12:20:26;;;;;;;;;;;;;;;24.01;100.00;99281.56;5013731;28;19921;-78
2021/08/30 12:22:53;;;;;;;;;;;;;;;23.95;100.00;99279.44;5015216;28;19914;-77
2021/08/30 12:25:20;;;;;;;;;;;;;;;21.92;100.00;99288.25;5014853;28;19925;-78
2021/08/30 12:27:45;;;;;;;;;;;;;;;23.25;100.00;99286.00;5016570;28;19913;-77
2021/08/30 12:30:18;;;;;;;;;;;;;;;22.61;100.00;99284.81;5012822;28;19913;-77
2021/08/30 12:32:53;;;;;;;;;;;;;;;23.67;100.00;99286.94;5013910;28;20385;-81
2021/08/30 12:35:24;;;;;;;;;;;;;;;22.82;100.00;99292.00;4997649;28;20054;-77